Αρχική σελίδα
METAR-TAF:

METAR-TAF

Αεροδρόμια :

Ponca City, Οκλαχόμα, Ηνωμένες Πολιτείες Αμερικής

γεωγραφικό πλάτος: 36-43-50N, γεωγραφικό μήκος: 097-05-59W, υψόμετρο: 307 μ

Παρών καιρός

Η αναφορά έγινε 49 λεπτά πριν, στις 17:53 UTC
Άνεμος 14 kt από BA
Θερμοκρασία -3°C
Υγρασία 80%
Πίεση 1013 hPa
Ορατότητα: 16.1 χλμ
Νεφοσκεπής σε ύψος 1600 πόδια

METAR: KPNC 151753Z AUTO 04014KT 10SM OVC016 M03/M06 A2992 RMK AO2 SLP138 60002 I6002 T10281061 11028 21039 50004

Χρόνος: 12:42 (18:42 UTC)

Πρόγνωση Καιρού

Η αναφορά έγινε 1 ώρα και 13 λεπτά πριν, στις 17:29 UTC
Η πρόγνωση ισχύει από τις 15 στις 18 UTC έως τις 16 στις 18 UTC
Άνεμος 9 kt από BA
Ορατότητα: 10 χλμ
Νεφοσκεπής σε ύψος 2000 πόδια
Από 16 στις 0600 UTC
Άνεμος 8 kt από Α/BA
Ορατότητα: 10 χλμ
Νεφοσκεπής σε ύψος 1000 πόδια

TAF: KPNC 151729Z 1518/1618 04009KT P6SM OVC020 FM160600 07008KT P6SM OVC010

Μετεωρολογικές αναφορές και προγνώσεις για περισσότερα από 4000 αεροδρόμια (δελτία METAR και TAF).

Οι διαθέσιμοι σταθμοί απεικονίζονται στο χάρτη με κίτρινες και κόκκινες κουκκίδες.

Μετακινήστε το ποντίκι πάνω από τις κουκκίδες για να δείτε το όνομα του σταθμού.

Στη συνέχεια, κάντε κλικ για να δείτε τις μετεωρολογικές αναφορές και τις προγνώσεις καιρού.

Για να αλλάξετε το χάρτη: κάντε κλικ στα πράσινα κουμπιά με τον μαύρο σταυρό για να ζουμάρετε, στο πράσινο κουμπί με την παύλα για να αφαιρέσετε το ζουμ ή στα πράσινα βέλη για να αντιπαραβάλλετε χάρτες.


METAR-TAF: